createdAt,value
2017-06-22T00:01:23.235Z,49.50
2017-06-22T00:03:49.182Z,49.60
2017-06-22T00:06:15.123Z,49.80
2017-06-22T00:08:41.039Z,49.80
2017-06-22T00:11:06.974Z,49.70
2017-06-22T00:13:32.940Z,50.00
2017-06-22T00:15:58.846Z,50.10
2017-06-22T00:18:24.755Z,50.10
2017-06-22T00:20:50.687Z,50.00
2017-06-22T00:23:16.619Z,50.00
2017-06-22T00:25:42.531Z,50.50
2017-06-22T00:28:08.448Z,50.60
2017-06-22T00:30:34.398Z,50.70
2017-06-22T00:33:00.311Z,50.90
2017-06-22T00:35:26.246Z,50.90
2017-06-22T00:37:52.191Z,51.00
2017-06-22T00:40:18.895Z,52.00
2017-06-22T00:42:44.827Z,51.40
2017-06-22T00:45:10.745Z,51.50
2017-06-22T00:47:36.925Z,51.30
2017-06-22T00:50:02.877Z,51.20
2017-06-22T00:52:28.779Z,51.30
2017-06-22T00:54:54.694Z,51.50
2017-06-22T00:57:20.618Z,51.50
2017-06-22T00:59:46.554Z,51.40
2017-06-22T01:02:12.452Z,51.70
2017-06-22T01:04:38.403Z,52.20
2017-06-22T01:07:04.314Z,52.50
2017-06-22T01:09:30.232Z,52.50
2017-06-22T01:11:56.141Z,52.50
2017-06-22T01:14:22.075Z,52.40
2017-06-22T01:16:48.012Z,52.30
2017-06-22T01:19:13.908Z,52.30
2017-06-22T01:21:39.860Z,52.20
2017-06-22T01:26:38.532Z,52.30
2017-06-22T01:29:04.451Z,52.40
2017-06-22T01:31:30.375Z,52.40
2017-06-22T01:33:56.308Z,52.40
2017-06-22T01:36:22.439Z,52.20
2017-06-22T01:38:48.348Z,52.20
2017-06-22T01:41:14.255Z,52.20
2017-06-22T01:43:40.208Z,52.50
2017-06-22T01:46:06.117Z,52.60
2017-06-22T01:48:32.046Z,52.80
2017-06-22T01:50:57.975Z,53.00
2017-06-22T01:53:23.967Z,53.10
2017-06-22T01:55:50.817Z,53.20
2017-06-22T01:58:16.727Z,53.50
2017-06-22T02:00:42.661Z,53.90
2017-06-22T02:03:08.617Z,54.20
2017-06-22T02:05:35.271Z,54.20
2017-06-22T02:08:01.191Z,54.10
2017-06-22T02:10:27.148Z,54.30
2017-06-22T02:12:53.120Z,54.40
2017-06-22T02:15:19.070Z,54.60
2017-06-22T02:17:45.028Z,54.60
2017-06-22T02:20:10.982Z,54.60
2017-06-22T02:22:36.904Z,54.30
2017-06-22T02:25:03.555Z,54.50
2017-06-22T02:27:29.515Z,54.40
2017-06-22T02:29:55.451Z,54.70
2017-06-22T02:32:21.386Z,54.70
2017-06-22T02:34:47.358Z,54.50
2017-06-22T02:37:13.281Z,54.60
2017-06-22T02:39:39.207Z,54.50
2017-06-22T02:42:05.168Z,54.30
2017-06-22T02:44:31.114Z,54.40
2017-06-22T02:46:57.032Z,54.90
2017-06-22T02:49:23.703Z,56.10
2017-06-22T02:51:49.663Z,56.00
2017-06-22T02:54:15.631Z,56.40
2017-06-22T02:56:41.554Z,56.50
2017-06-22T02:59:07.469Z,56.90
2017-06-22T03:01:33.405Z,57.10
2017-06-22T03:03:59.363Z,57.30
2017-06-22T03:06:25.283Z,57.60
2017-06-22T03:08:51.217Z,57.90
2017-06-22T03:11:17.161Z,57.90
2017-06-22T03:13:43.880Z,58.30
2017-06-22T03:16:09.819Z,58.20
2017-06-22T03:18:35.784Z,58.40
2017-06-22T03:21:01.723Z,58.30
2017-06-22T03:23:27.633Z,58.60
2017-06-22T03:25:53.535Z,58.80
2017-06-22T03:28:19.431Z,59.00
2017-06-22T03:30:45.347Z,58.80
2017-06-22T03:33:11.267Z,59.00
2017-06-22T03:35:37.203Z,59.20
2017-06-22T03:38:03.196Z,59.40
2017-06-22T03:40:29.871Z,59.70
2017-06-22T03:42:55.939Z,59.60
2017-06-22T03:45:21.889Z,59.30
2017-06-22T03:47:47.818Z,59.10
2017-06-22T03:50:14.597Z,58.90
2017-06-22T03:52:40.602Z,58.80
2017-06-22T03:55:06.513Z,58.80
2017-06-22T03:57:32.440Z,58.60
2017-06-22T03:59:58.377Z,58.60
2017-06-22T04:02:24.291Z,58.60
2017-06-22T04:04:50.248Z,58.70
2017-06-22T04:07:16.170Z,58.70
2017-06-22T04:09:42.091Z,58.80
2017-06-22T04:12:08.023Z,58.90
2017-06-22T04:14:33.958Z,58.90
2017-06-22T04:16:59.904Z,58.80
2017-06-22T04:19:25.867Z,58.90
2017-06-22T04:21:51.795Z,58.90
2017-06-22T04:24:17.757Z,58.90
2017-06-22T04:26:43.703Z,58.90
2017-06-22T04:29:09.611Z,58.50
2017-06-22T04:31:35.772Z,58.40
2017-06-22T04:34:01.703Z,58.50
2017-06-22T04:36:27.635Z,58.30
2017-06-22T04:38:53.525Z,58.70
2017-06-22T04:41:19.451Z,58.90
2017-06-22T04:43:45.383Z,59.00
2017-06-22T04:46:11.341Z,59.30
2017-06-22T04:48:37.322Z,59.70
2017-06-22T04:51:03.245Z,59.40
2017-06-22T04:53:29.184Z,59.50
2017-06-22T04:55:55.841Z,59.70
2017-06-22T04:58:21.791Z,59.60
2017-06-22T05:00:47.715Z,59.90
2017-06-22T05:03:13.679Z,60.30
2017-06-22T05:05:39.675Z,60.60
2017-06-22T05:08:05.591Z,59.90
2017-06-22T05:10:31.501Z,59.20
2017-06-22T05:12:57.434Z,58.80
2017-06-22T05:15:23.351Z,58.60
2017-06-22T05:17:49.288Z,58.60
2017-06-22T05:20:15.214Z,58.50
2017-06-22T05:22:41.920Z,58.50
2017-06-22T05:25:07.849Z,58.40
2017-06-22T05:27:33.769Z,57.90
2017-06-22T05:29:59.683Z,58.00
2017-06-22T05:32:25.655Z,58.10
2017-06-22T05:34:51.559Z,58.00
2017-06-22T05:37:17.513Z,57.80
2017-06-22T05:39:43.475Z,57.60
2017-06-22T05:42:09.389Z,57.70
2017-06-22T05:44:35.335Z,57.60
2017-06-22T05:47:01.250Z,57.00
2017-06-22T05:49:27.186Z,56.80
2017-06-22T05:51:53.106Z,56.80
2017-06-22T05:54:19.024Z,56.60
2017-06-22T05:56:45.019Z,56.50
2017-06-22T05:59:11.668Z,56.30
2017-06-22T06:01:37.663Z,55.90
2017-06-22T06:04:03.641Z,56.10
2017-06-22T06:06:29.561Z,56.00
2017-06-22T06:08:56.233Z,56.10
2017-06-22T06:11:22.215Z,55.90
2017-06-22T06:13:48.148Z,55.30
2017-06-22T06:16:14.118Z,54.70
2017-06-22T06:18:40.055Z,54.00
2017-06-22T06:21:05.995Z,54.00
2017-06-22T06:23:32.684Z,54.30
2017-06-22T06:25:58.647Z,54.20
2017-06-22T06:28:24.611Z,54.10
2017-06-22T06:30:50.561Z,54.00
2017-06-22T06:33:16.555Z,53.90
2017-06-22T06:35:42.499Z,54.20
2017-06-22T06:38:08.415Z,54.20
2017-06-22T06:40:34.415Z,54.20
2017-06-22T06:43:00.415Z,54.20
2017-06-22T06:45:26.331Z,54.30
2017-06-22T06:47:52.279Z,54.20
2017-06-22T06:50:18.263Z,54.20
2017-06-22T06:52:44.955Z,54.30
2017-06-22T06:55:10.924Z,54.20
2017-06-22T06:57:36.849Z,54.30
2017-06-22T07:00:02.783Z,54.20
2017-06-22T07:02:28.695Z,54.00
2017-06-22T07:04:54.606Z,53.80
2017-06-22T07:07:20.538Z,53.80
2017-06-22T07:09:46.483Z,53.70
2017-06-22T07:12:12.471Z,53.50
2017-06-22T07:14:39.134Z,53.20
2017-06-22T07:17:05.049Z,53.20
2017-06-22T07:19:30.959Z,53.30
2017-06-22T07:21:56.889Z,53.30
2017-06-22T07:24:22.824Z,53.10
2017-06-22T07:26:48.728Z,52.60
2017-06-22T07:29:14.666Z,52.70
2017-06-22T07:31:40.603Z,52.60
2017-06-22T07:34:06.555Z,52.60
2017-06-22T07:36:32.479Z,52.80
2017-06-22T07:38:58.399Z,52.40
2017-06-22T07:41:24.337Z,52.70
2017-06-22T07:43:50.336Z,52.90
2017-06-22T07:46:16.263Z,52.90
2017-06-22T07:48:42.910Z,52.40
2017-06-22T07:51:08.857Z,52.40
2017-06-22T07:53:34.784Z,52.30
2017-06-22T07:56:00.680Z,52.10
2017-06-22T07:58:26.695Z,51.90
2017-06-22T08:00:52.607Z,52.30
2017-06-22T08:03:18.527Z,52.30
2017-06-22T08:05:44.458Z,52.20
2017-06-22T08:08:10.376Z,51.90
2017-06-22T08:10:36.327Z,51.90
2017-06-22T08:13:02.320Z,51.70
2017-06-22T08:15:28.987Z,51.20
2017-06-22T08:17:54.943Z,51.20
2017-06-22T08:20:20.847Z,51.30
2017-06-22T08:22:46.811Z,50.90
2017-06-22T08:25:12.731Z,50.40
2017-06-22T08:27:38.668Z,50.80
2017-06-22T08:30:04.578Z,50.50
2017-06-22T08:32:30.495Z,50.70
2017-06-22T08:34:56.453Z,50.30
2017-06-22T08:37:22.427Z,49.80
2017-06-22T08:39:49.094Z,49.00
2017-06-22T08:42:15.027Z,49.00
2017-06-22T08:44:40.948Z,48.60
2017-06-22T08:47:06.896Z,48.80
2017-06-22T08:49:32.843Z,48.40
2017-06-22T08:51:58.827Z,48.40
2017-06-22T08:54:24.771Z,48.30
2017-06-22T08:56:50.657Z,48.30
2017-06-22T08:59:17.150Z,48.40
2017-06-22T09:01:43.271Z,47.70
2017-06-22T09:04:09.186Z,47.40
2017-06-22T09:06:35.103Z,47.20
2017-06-22T09:09:01.028Z,47.30
2017-06-22T09:11:27.013Z,46.50
2017-06-22T09:13:52.973Z,46.30
2017-06-22T09:16:18.916Z,45.90
2017-06-22T09:18:44.852Z,45.60
2017-06-22T09:21:10.871Z,45.70
2017-06-22T09:23:36.797Z,45.60
2017-06-22T09:26:02.747Z,45.60
2017-06-22T09:28:28.663Z,45.50
2017-06-22T09:30:54.564Z,46.00
2017-06-22T09:33:20.463Z,46.10
2017-06-22T09:35:46.395Z,46.40
2017-06-22T09:38:12.447Z,45.40
2017-06-22T09:40:38.387Z,43.50
2017-06-22T09:43:04.320Z,44.50
2017-06-22T09:45:30.219Z,43.80
2017-06-22T09:47:56.169Z,43.80
2017-06-22T09:50:22.096Z,43.00
2017-06-22T09:52:48.056Z,43.20
2017-06-22T09:55:15.159Z,41.70
2017-06-22T09:57:41.105Z,41.10
2017-06-22T10:00:07.013Z,41.30
2017-06-22T10:02:33.028Z,41.60
2017-06-22T10:04:59.679Z,41.40
2017-06-22T10:07:25.618Z,41.40
2017-06-22T10:09:51.540Z,41.20
2017-06-22T10:12:17.485Z,40.00
2017-06-22T10:14:43.428Z,40.00
2017-06-22T10:17:09.426Z,39.70
2017-06-22T10:19:35.384Z,39.50
2017-06-22T10:22:01.307Z,39.50
2017-06-22T10:24:27.416Z,39.90
2017-06-22T10:26:53.347Z,40.10
2017-06-22T10:29:19.271Z,39.40
2017-06-22T10:31:45.196Z,39.30
2017-06-22T10:34:11.156Z,39.50
2017-06-22T10:36:37.100Z,39.60
2017-06-22T10:39:03.105Z,39.30
2017-06-22T10:41:29.089Z,39.10
2017-06-22T10:43:54.999Z,38.80
2017-06-22T10:46:20.923Z,38.60
2017-06-22T10:48:46.887Z,38.70
2017-06-22T10:51:12.855Z,38.50
2017-06-22T10:53:38.811Z,39.00
2017-06-22T10:56:04.806Z,38.50
2017-06-22T10:58:31.550Z,38.10
2017-06-22T11:00:57.545Z,38.00
2017-06-22T11:03:23.510Z,38.00
2017-06-22T11:05:49.489Z,38.50
2017-06-22T11:08:15.444Z,38.70
2017-06-22T11:10:41.427Z,38.40
2017-06-22T11:13:10.382Z,38.00
2017-06-22T11:15:36.316Z,38.30
2017-06-22T11:18:02.303Z,38.50
2017-06-22T11:20:28.317Z,38.30
2017-06-22T11:22:54.287Z,38.10
2017-06-22T11:25:20.269Z,37.70
2017-06-22T11:27:46.276Z,37.30
2017-06-22T11:30:12.248Z,37.10
2017-06-22T11:32:38.231Z,36.40
2017-06-22T11:35:07.142Z,33.90
2017-06-22T11:37:33.110Z,33.90
2017-06-22T11:39:59.235Z,34.40
2017-06-22T11:42:25.212Z,33.80
2017-06-22T11:44:51.152Z,33.80
2017-06-22T11:47:17.091Z,33.30
2017-06-22T11:49:43.853Z,32.80
2017-06-22T11:52:09.817Z,33.40
2017-06-22T11:54:35.802Z,33.40
2017-06-22T11:57:02.505Z,33.80
2017-06-22T11:59:28.447Z,33.80
2017-06-22T12:01:54.388Z,33.30
2017-06-22T12:04:20.316Z,33.30
2017-06-22T12:06:46.311Z,33.60
2017-06-22T12:09:13.046Z,33.50
2017-06-22T12:11:38.969Z,33.40
2017-06-22T12:14:04.888Z,33.10
2017-06-22T12:16:30.929Z,32.90
2017-06-22T12:18:58.840Z,32.60
2017-06-22T12:21:24.870Z,32.70
2017-06-22T12:23:50.864Z,32.70
2017-06-22T12:26:16.889Z,32.60
2017-06-22T12:28:42.913Z,32.00
2017-06-22T12:31:08.958Z,32.50
2017-06-22T12:33:35.288Z,32.70
2017-06-22T12:36:02.133Z,33.00
2017-06-22T12:38:28.252Z,33.30
2017-06-22T12:40:54.248Z,34.00
2017-06-22T12:43:20.212Z,34.20
2017-06-22T12:45:46.163Z,34.50
2017-06-22T12:48:12.114Z,35.10
2017-06-22T12:50:38.051Z,35.30
2017-06-22T12:53:04.070Z,35.40
2017-06-22T12:55:30.029Z,35.50
2017-06-22T12:57:57.415Z,35.40
2017-06-22T13:00:24.188Z,35.60
2017-06-22T13:02:50.103Z,35.50
2017-06-22T13:05:16.060Z,35.80
2017-06-22T13:07:42.043Z,36.00
2017-06-22T13:10:08.020Z,35.90
2017-06-22T13:12:34.024Z,36.20
2017-06-22T13:14:59.960Z,36.10
2017-06-22T13:17:25.899Z,35.90
2017-06-22T13:19:51.905Z,35.90
2017-06-22T13:22:17.908Z,35.50
2017-06-22T13:24:44.046Z,35.50
2017-06-22T13:27:10.776Z,35.10
2017-06-22T13:29:36.755Z,35.00
2017-06-22T13:32:02.704Z,35.40
2017-06-22T13:34:28.741Z,35.60
2017-06-22T13:36:54.919Z,35.70
2017-06-22T13:39:20.843Z,36.20
2017-06-22T13:41:46.816Z,36.70
2017-06-22T13:44:13.003Z,36.60
2017-06-22T13:46:38.960Z,36.60
2017-06-22T13:49:05.258Z,36.90
2017-06-22T13:51:32.108Z,37.10
2017-06-22T13:53:58.053Z,37.40
2017-06-22T13:56:23.986Z,37.30
2017-06-22T13:58:49.964Z,37.80
2017-06-22T14:01:15.924Z,37.90
2017-06-22T14:03:41.945Z,38.20
2017-06-22T14:06:07.911Z,38.60
2017-06-22T14:08:33.896Z,38.40
2017-06-22T14:10:59.843Z,38.50
2017-06-22T14:13:25.764Z,38.90
2017-06-22T14:15:51.762Z,39.20
2017-06-22T14:18:18.457Z,40.00
2017-06-22T14:20:44.375Z,39.90
2017-06-22T14:23:10.301Z,40.50
2017-06-22T14:25:36.220Z,40.70
2017-06-22T14:28:02.141Z,40.50
2017-06-22T14:30:29.538Z,40.70
2017-06-22T14:32:55.510Z,41.10
2017-06-22T14:35:21.503Z,41.20
2017-06-22T14:37:47.459Z,41.40
2017-06-22T14:40:13.483Z,41.30
2017-06-22T14:42:39.456Z,41.50
2017-06-22T14:45:05.418Z,41.80
2017-06-22T14:47:31.468Z,42.10
2017-06-22T14:49:57.427Z,42.20
2017-06-22T14:52:23.360Z,41.90
2017-06-22T14:54:49.283Z,41.10
2017-06-22T14:57:15.237Z,41.10
2017-06-22T14:59:41.192Z,41.10
2017-06-22T15:02:07.184Z,40.80
2017-06-22T15:04:33.121Z,40.90
2017-06-22T15:06:59.033Z,40.80
2017-06-22T15:09:25.016Z,40.50
2017-06-22T15:11:50.947Z,39.70
2017-06-22T15:14:16.906Z,40.00
2017-06-22T15:16:42.871Z,40.40
2017-06-22T15:19:08.846Z,40.90
2017-06-22T15:21:34.812Z,41.20
2017-06-22T15:24:00.731Z,41.30
2017-06-22T15:26:26.651Z,41.40
2017-06-22T15:28:52.660Z,41.60
2017-06-22T15:31:18.699Z,42.30
2017-06-22T15:33:44.647Z,43.10
2017-06-22T15:36:10.644Z,43.30
2017-06-22T15:38:36.697Z,43.60
2017-06-22T15:41:02.865Z,44.20
2017-06-22T15:43:28.815Z,45.60
2017-06-22T15:45:54.774Z,46.20
2017-06-22T15:48:20.788Z,46.70
2017-06-22T15:50:46.797Z,47.10
2017-06-22T15:53:12.869Z,47.70
2017-06-22T15:55:39.817Z,48.70
2017-06-22T15:58:05.771Z,48.70
2017-06-22T16:00:31.705Z,49.00
2017-06-22T16:02:57.677Z,49.30
2017-06-22T16:05:23.637Z,49.40
2017-06-22T16:07:49.599Z,49.40
2017-06-22T16:10:15.605Z,49.70
2017-06-22T16:12:41.553Z,50.10
2017-06-22T16:15:07.481Z,50.30
2017-06-22T16:17:33.447Z,50.40
2017-06-22T16:19:59.401Z,50.50
2017-06-22T16:22:25.335Z,50.40
2017-06-22T16:24:51.441Z,49.70
2017-06-22T16:27:17.368Z,48.90
2017-06-22T16:29:43.314Z,49.20
2017-06-22T16:32:09.250Z,49.20
2017-06-22T16:34:35.224Z,44.90
2017-06-22T16:37:01.260Z,45.30
2017-06-22T16:39:27.195Z,46.40
2017-06-22T16:41:53.883Z,46.70
2017-06-22T16:44:19.835Z,46.60
2017-06-22T16:46:45.805Z,46.50
2017-06-22T16:49:11.725Z,46.70
2017-06-22T16:51:37.707Z,47.00
2017-06-22T16:54:03.648Z,46.00
2017-06-22T16:56:29.644Z,45.10
2017-06-22T16:58:55.579Z,45.30
2017-06-22T17:01:21.535Z,46.00
2017-06-22T17:03:47.442Z,45.90
2017-06-22T17:06:14.384Z,45.70
2017-06-22T17:08:40.392Z,46.30
2017-06-22T17:11:07.075Z,44.50
2017-06-22T17:13:33.041Z,44.50
2017-06-22T17:17:27.738Z,47.80
2017-06-22T17:19:53.927Z,49.50
2017-06-22T17:22:19.891Z,48.50
2017-06-22T17:24:45.842Z,49.10
2017-06-22T17:27:11.779Z,50.40
2017-06-22T17:29:37.791Z,50.60
2017-06-22T17:32:03.718Z,50.20
2017-06-22T17:34:29.734Z,51.20
2017-06-22T17:36:55.847Z,49.00
2017-06-22T17:39:21.917Z,46.90
2017-06-22T17:41:47.954Z,44.30
2017-06-22T17:44:13.915Z,47.20
2017-06-22T17:46:39.925Z,46.70
2017-06-22T17:49:05.966Z,45.80
2017-06-22T17:51:31.900Z,45.40
2017-06-22T17:53:57.959Z,44.80
2017-06-22T17:56:23.927Z,43.60
2017-06-22T17:58:49.946Z,44.20
2017-06-22T18:01:15.970Z,43.50
2017-06-22T18:03:42.032Z,44.40
2017-06-22T18:06:08.016Z,44.50
2017-06-22T18:08:34.040Z,44.80
2017-06-22T18:11:00.003Z,44.20
2017-06-22T18:13:26.060Z,44.40
2017-06-22T18:15:52.019Z,44.40
2017-06-22T18:18:18.852Z,44.00
2017-06-22T18:20:44.788Z,45.00
2017-06-22T18:23:10.794Z,44.80
2017-06-22T18:25:36.818Z,45.20
2017-06-22T18:28:02.791Z,45.50
2017-06-22T18:30:28.741Z,45.70
2017-06-22T18:32:54.689Z,45.20
2017-06-22T18:35:21.016Z,45.20
2017-06-22T18:37:47.090Z,45.60
2017-06-22T18:40:13.105Z,45.50
2017-06-22T18:42:39.078Z,45.70
2017-06-22T18:45:05.050Z,45.30
2017-06-22T18:47:31.107Z,46.40
2017-06-22T18:49:57.095Z,46.70
2017-06-22T18:52:23.636Z,47.20
2017-06-22T18:54:50.434Z,48.70
2017-06-22T18:57:16.660Z,48.60
2017-06-22T18:59:42.634Z,48.10
2017-06-22T19:02:09.360Z,51.60
2017-06-22T19:04:35.339Z,51.00
2017-06-22T19:07:02.131Z,52.40
2017-06-22T19:09:28.158Z,53.30
2017-06-22T19:11:55.014Z,53.50
2017-06-22T19:14:22.143Z,53.50
2017-06-22T19:16:49.816Z,53.60
2017-06-22T19:19:15.806Z,53.50
2017-06-22T19:21:41.821Z,53.80
2017-06-22T19:24:07.887Z,53.80
2017-06-22T19:26:33.921Z,53.00
2017-06-22T19:28:59.870Z,52.20
2017-06-22T19:31:26.400Z,52.10
2017-06-22T19:33:52.375Z,52.00
2017-06-22T19:36:18.449Z,52.00
2017-06-22T19:38:46.009Z,52.20
2017-06-22T19:41:12.941Z,52.30
2017-06-22T19:43:38.998Z,52.50
2017-06-22T19:46:04.971Z,52.60
2017-06-22T19:48:30.989Z,52.60
2017-06-22T19:50:57.623Z,53.20
2017-06-22T19:53:23.705Z,53.80
2017-06-22T19:55:50.313Z,54.20
2017-06-22T19:58:19.744Z,54.40
2017-06-22T20:00:49.703Z,55.40
2017-06-22T20:03:16.435Z,54.90
2017-06-22T20:05:43.136Z,54.80
2017-06-22T20:08:09.079Z,54.50
2017-06-22T20:10:35.877Z,54.60
2017-06-22T20:13:01.821Z,54.70
2017-06-22T20:15:27.807Z,54.80
2017-06-22T20:17:54.684Z,55.30
2017-06-22T20:20:21.489Z,56.00
2017-06-22T20:22:47.458Z,56.70
2017-06-22T20:25:13.435Z,57.60
2017-06-22T20:27:39.403Z,57.80
2017-06-22T20:30:05.357Z,58.20
2017-06-22T20:32:31.556Z,58.20
2017-06-22T20:34:57.523Z,58.10
2017-06-22T20:37:23.762Z,58.20
2017-06-22T20:39:49.776Z,57.60
2017-06-22T20:42:15.785Z,57.80
2017-06-22T20:44:41.763Z,57.90
2017-06-22T20:47:07.807Z,57.90
2017-06-22T20:49:33.763Z,57.70
2017-06-22T20:51:59.739Z,57.60
2017-06-22T20:54:25.792Z,57.70
2017-06-22T20:56:51.730Z,57.60
2017-06-22T20:59:17.667Z,57.30
2017-06-22T21:01:43.639Z,57.20
2017-06-22T21:04:09.588Z,57.10
2017-06-22T21:06:35.520Z,57.40
2017-06-22T21:09:01.477Z,57.30
2017-06-22T21:11:27.431Z,57.60
2017-06-22T21:13:53.395Z,57.70
2017-06-22T21:16:19.363Z,57.90
2017-06-22T21:18:46.052Z,57.80
2017-06-22T21:21:12.020Z,57.70
2017-06-22T21:23:37.975Z,57.80
2017-06-22T21:26:03.901Z,57.60
2017-06-22T21:28:29.856Z,57.50
2017-06-22T21:30:55.808Z,57.40
2017-06-22T21:33:22.490Z,58.00
2017-06-22T21:35:48.407Z,57.90
2017-06-22T21:38:14.327Z,57.90
2017-06-22T21:40:40.358Z,57.80
2017-06-22T21:43:06.370Z,58.00
2017-06-22T21:45:33.299Z,58.10
2017-06-22T21:47:59.984Z,58.20
2017-06-22T21:50:25.904Z,58.70
2017-06-22T21:52:51.869Z,59.00
2017-06-22T21:55:18.633Z,59.70
2017-06-22T21:57:44.588Z,59.70
2017-06-22T22:00:10.565Z,59.90
2017-06-22T22:02:36.485Z,59.40
2017-06-22T22:05:03.762Z,59.10
2017-06-22T22:07:29.713Z,59.20
2017-06-22T22:09:55.647Z,59.10
2017-06-22T22:12:21.852Z,59.00
2017-06-22T22:14:47.856Z,59.00
2017-06-22T22:17:13.810Z,59.20
2017-06-22T22:19:40.568Z,59.50
2017-06-22T22:22:06.677Z,59.40
2017-06-22T22:24:32.941Z,59.50
2017-06-22T22:26:58.887Z,59.70
2017-06-22T22:29:24.987Z,59.30
2017-06-22T22:31:50.945Z,59.50
2017-06-22T22:34:16.885Z,58.80
2017-06-22T22:36:42.823Z,58.60
2017-06-22T22:39:08.839Z,58.80
2017-06-22T22:41:35.401Z,58.30
2017-06-22T22:44:01.599Z,58.20
2017-06-22T22:46:28.119Z,58.10
2017-06-22T22:48:54.095Z,58.40
2017-06-22T22:51:20.067Z,58.50
2017-06-22T22:53:46.935Z,58.00
2017-06-22T22:56:12.875Z,57.10
2017-06-22T22:58:38.881Z,56.50
2017-06-22T23:01:04.822Z,56.10
2017-06-22T23:03:30.769Z,56.10
2017-06-22T23:05:56.736Z,55.50
2017-06-22T23:08:22.815Z,55.40
2017-06-22T23:10:48.736Z,55.40
2017-06-22T23:13:14.697Z,55.10
2017-06-22T23:15:40.640Z,55.50
2017-06-22T23:18:06.825Z,55.20
2017-06-22T23:20:32.764Z,55.10
2017-06-22T23:22:58.713Z,55.70
2017-06-22T23:25:24.670Z,53.00
2017-06-22T23:27:50.615Z,52.70
2017-06-22T23:30:16.607Z,52.80
2017-06-22T23:32:42.616Z,53.30
2017-06-22T23:35:08.577Z,54.00
2017-06-22T23:37:34.550Z,53.90
2017-06-22T23:40:00.534Z,54.10
2017-06-22T23:42:26.554Z,53.50
2017-06-22T23:44:52.555Z,53.70
2017-06-22T23:47:18.492Z,54.50
2017-06-22T23:49:44.854Z,54.20
2017-06-22T23:52:10.840Z,54.10
2017-06-22T23:54:37.355Z,53.90
2017-06-22T23:57:03.411Z,53.70
2017-06-22T23:59:29.402Z,53.40
